Terminal Aerodrome Forecast
Issued by NWS

Home | Current Version | Previous Version | Text Only | Print | Product List | Glossary Off
Versions: 1 2 3 4 5 6 7 8 9 10 11 12 13 14 15 16

000
FTUS43 KGRB 172000 AAA
TAFMTW
TAF AMD
KMTW 172024Z 1720/1818 30014G25KT P6SM VCSH SCT015 OVC025
      TEMPO 1721/1724 5SM -RA BR BKN012
     FM180100 32013G20KT P6SM VCSH SCT012 BKN025
     FM181300 35013KT P6SM SCT025 BKN050
     FM181600 35013G19KT P6SM SKC=

USA.gov is the U.S. government's official web portal to all federal, state and local government web resources and services.